.
WxDataArchive / Data Records for 2010-02-06
2010-02-05 February 2010 2010-02-07

Data Records for Saturday, 06 February 2010

Time	Temp	Chill	HIndex	Humid	Dewpt	 Wind 	HiWind	WindDir	Rain 	Barom 
-----	----	-----	------	-----	-----	------	------	-------	-----	----- 
00:00	27.3	21.6	27.3	94	25.8	5	13	112	0.00	29.800 
00:05	27.2	27.2	27.2	94	25.7	3	10	45	0.00	29.800 
00:10	27.2	22.5	27.2	94	25.7	4	13	45	0.00	29.800 
00:15	27.0	22.3	27.0	94	25.5	4	13	45	0.00	29.794 
00:20	27.0	21.2	27.0	94	25.5	5	13	68	0.00	29.794 
00:25	26.9	21.1	26.9	94	25.4	5	19	22	0.00	29.794 
00:30	26.9	22.2	26.9	94	25.4	4	10	22	0.00	29.790 
00:35	26.9	22.2	26.9	94	25.4	4	11	90	0.00	29.790 
00:40	26.7	22.0	26.7	94	25.2	4	13	112	0.00	29.790 
00:45	26.7	22.0	26.7	94	25.2	4	10	90	0.00	29.784 
00:50	26.6	20.7	26.6	93	24.9	5	13	90	0.00	29.784 
00:55	26.6	20.7	26.6	93	24.9	5	18	22	0.00	29.784 
01:00	26.6	20.7	26.6	93	24.9	5	15	45	0.00	29.785 
01:05	26.4	20.5	26.4	93	24.7	5	12	22	0.00	29.785 
01:10	26.4	20.5	26.4	93	24.7	5	15	68	0.00	29.785 
01:15	26.3	21.5	26.3	93	24.6	4	13	68	0.00	29.782 
01:20	26.3	21.5	26.3	93	24.6	4	13	68	0.00	29.782 
01:25	26.3	20.4	26.3	93	24.6	5	14	45	0.00	29.782 
01:30	26.1	20.1	26.1	93	24.4	5	11	45	0.00	29.780 
01:35	26.1	20.1	26.1	93	24.4	5	11	68	0.00	29.780 
01:40	26.0	21.1	26.0	93	24.3	4	12	68	0.00	29.780 
01:45	26.0	20.0	26.0	93	24.3	5	17	45	0.00	29.782 
01:50	26.0	20.0	26.0	93	24.3	5	13	45	0.00	29.782 
01:55	25.8	19.8	25.8	93	24.1	5	17	90	0.00	29.782 
02:00	25.7	20.8	25.7	93	24.0	4	13	45	0.00	29.785 
02:05	25.7	25.7	25.7	93	24.0	3	8	45	0.00	29.785 
02:10	25.6	19.6	25.6	93	23.9	5	15	112	0.00	29.785 
02:15	25.4	20.5	25.4	93	23.7	4	10	45	0.00	29.789 
02:20	25.4	25.4	25.4	93	23.7	3	9	22	0.00	29.789 
02:25	25.4	19.3	25.4	92	23.4	5	12	45	0.00	29.789 
02:30	25.3	20.3	25.3	92	23.3	4	13	22	0.00	29.794 
02:35	25.3	20.3	25.3	92	23.3	4	11	112	0.00	29.794 
02:40	25.3	20.3	25.3	92	23.3	4	10	45	0.00	29.794 
02:45	25.3	20.3	25.3	92	23.3	4	15	45	0.00	29.793 
02:50	25.1	19.0	25.1	95	23.9	5	14	45	0.00	29.793 
02:55	25.1	20.1	25.1	92	23.1	4	12	90	0.00	29.793 
03:00	25.1	25.1	25.1	92	23.1	3	10	68	0.00	29.794 
03:05	25.1	20.1	25.1	92	23.1	4	11	45	0.00	29.794 
03:10	25.1	20.1	25.1	92	23.1	4	9	45	0.00	29.794 
03:15	25.0	25.0	25.0	92	23.0	3	13	68	0.00	29.794 
03:20	25.0	25.0	25.0	92	23.0	3	7	22	0.00	29.794 
03:25	25.0	20.0	25.0	92	23.0	4	10	45	0.00	29.794 
03:30	25.0	18.9	25.0	91	22.8	5	10	45	0.00	29.796 
03:35	25.0	25.0	25.0	91	22.8	3	6	45	0.00	29.796 
03:40	25.0	25.0	25.0	91	22.8	3	12	90	0.00	29.796 
03:45	25.0	25.0	25.0	91	22.8	3	11	90	0.00	29.802 
03:50	24.8	24.8	24.8	90	22.3	3	9	45	0.00	29.802 
03:55	24.8	24.8	24.8	90	22.3	3	10	45	0.00	29.802 
04:00	24.8	24.8	24.8	90	22.3	3	11	45	0.00	29.805 
04:05	24.8	19.8	24.8	90	22.3	4	11	45	0.00	29.805 
04:10	24.8	24.8	24.8	89	22.0	3	10	90	0.00	29.805 
04:15	24.8	19.8	24.8	89	22.0	4	11	45	0.00	29.814 
04:20	24.8	19.8	24.8	88	21.8	4	12	90	0.00	29.814 
04:25	24.8	24.8	24.8	88	21.8	3	6	22	0.00	29.814 
04:30	24.8	19.8	24.8	88	21.8	4	14	22	0.00	29.820 
04:35	24.8	19.8	24.8	87	21.5	4	10	45	0.00	29.820 
04:40	24.8	19.8	24.8	87	21.5	4	11	45	0.00	29.820 
04:45	24.7	24.7	24.7	87	21.4	3	10	45	0.00	29.827 
04:50	24.7	18.5	24.7	87	21.4	5	13	112	0.00	29.827 
04:55	24.7	18.5	24.7	86	21.1	5	10	68	0.00	29.827 
05:00	24.7	19.6	24.7	86	21.1	4	13	68	0.00	29.829 
05:05	24.7	18.5	24.7	85	20.8	5	15	90	0.00	29.829 
05:10	24.7	19.6	24.7	85	20.8	4	14	45	0.00	29.829 
05:15	24.5	24.5	24.5	85	20.6	3	10	22	0.00	29.842 
05:20	24.5	19.4	24.5	84	20.4	4	10	45	0.00	29.842 
05:25	24.5	24.5	24.5	84	20.4	3	7	90	0.00	29.842 
05:30	24.7	24.7	24.7	84	20.6	3	9	90	0.00	29.847 
05:35	24.7	19.6	24.7	83	20.3	4	14	45	0.00	29.847 
05:40	24.5	19.4	24.5	83	20.1	4	13	90	0.00	29.847 
05:45	24.5	24.5	24.5	82	19.8	2	9	45	0.00	29.859 
05:50	24.5	18.3	24.5	82	19.8	5	13	22	0.00	29.859 
05:55	24.4	24.4	24.4	82	19.7	3	9	45	0.00	29.859 
06:00	24.4	19.3	24.4	82	19.7	4	15	68	0.00	29.863 
06:05	24.4	24.4	24.4	81	19.4	3	8	22	0.00	29.863 
06:10	24.2	24.2	24.2	81	19.2	2	7	45	0.00	29.863 
06:15	24.2	19.1	24.2	81	19.2	4	11	22	0.00	29.876 
06:20	24.1	24.1	24.1	81	19.1	3	9	45	0.00	29.876 
06:25	24.1	24.1	24.1	80	18.8	3	11	90	0.00	29.876 
06:30	24.1	19.0	24.1	79	18.5	4	12	22	0.00	29.884 
06:35	24.1	19.0	24.1	78	18.3	4	17	90	0.00	29.884 
06:40	24.1	24.1	24.1	77	18.0	3	9	22	0.00	29.884 
06:45	24.1	24.1	24.1	77	18.0	3	9	90	0.00	29.894 
06:50	23.9	18.7	23.9	76	17.5	4	13	68	0.00	29.894 
06:55	23.9	23.9	23.9	76	17.5	2	7	45	0.00	29.894 
07:00	23.8	23.8	23.8	76	17.4	3	10	68	0.00	29.907 
07:05	23.6	23.6	23.6	76	17.2	3	7	68	0.00	29.907 
07:10	23.5	18.3	23.5	74	16.5	4	12	112	0.00	29.907 
07:15	23.5	23.5	23.5	75	16.8	2	7	45	0.00	29.914 
07:20	23.5	23.5	23.5	74	16.5	3	7	45	0.00	29.914 
07:25	23.3	18.0	23.3	73	15.9	4	13	45	0.00	29.914 
07:30	23.3	23.3	23.3	73	15.9	3	7	90	0.00	29.924 
07:35	23.2	23.2	23.2	73	15.9	3	7	68	0.00	29.924 
07:40	23.0	23.0	23.0	73	15.7	3	12	112	0.00	29.924 
07:45	23.0	23.0	23.0	72	15.3	3	10	22	0.00	29.931 
07:50	22.7	17.3	22.7	72	15.1	4	13	68	0.00	29.931 
07:55	22.7	17.3	22.7	71	14.7	4	11	90	0.00	29.931 
08:00	22.5	22.5	22.5	71	14.5	3	11	90	0.00	29.940 
08:05	22.4	22.4	22.4	71	14.4	3	10	90	0.00	29.940 
08:10	22.2	22.2	22.2	72	14.6	2	7	90	0.00	29.940 
08:15	22.1	22.1	22.1	71	14.2	3	9	45	0.00	29.954 
08:20	22.1	22.1	22.1	70	13.8	3	7	135	0.00	29.954 
08:25	21.9	21.9	21.9	71	14.0	2	7	22	0.00	29.954 
08:30	21.9	21.9	21.9	71	14.0	2	7	112	0.00	29.964 
08:35	22.1	22.1	22.1	70	13.8	2	6	68	0.00	29.964 
08:40	22.1	22.1	22.1	69	13.5	3	10	112	0.00	29.964 
08:45	22.1	16.6	22.1	69	13.5	4	10	90	0.00	29.978 
08:50	22.1	22.1	22.1	69	13.5	3	12	68	0.00	29.978 
08:55	21.9	21.9	21.9	68	13.0	3	7	90	0.00	29.978 
09:00	21.9	21.9	21.9	69	13.3	2	10	112	0.00	29.987 
09:05	21.9	21.9	21.9	68	13.0	3	10	45	0.00	29.987 
09:10	21.9	21.9	21.9	68	13.0	2	5	90	0.00	29.987 
09:15	21.9	21.9	21.9	69	13.3	2	6	45	0.00	29.991 
09:20	21.8	16.3	21.8	67	12.6	4	12	22	0.00	29.991 
09:25	21.6	21.6	21.6	68	12.7	1	7	45	0.00	29.991 
09:30	21.6	21.6	21.6	67	12.4	3	7	90	0.00	30.004 
09:35	21.6	21.6	21.6	67	12.4	1	4	90	0.00	30.004 
09:40	21.6	21.6	21.6	68	12.7	2	6	135	0.00	30.004 
09:45	21.9	21.9	21.9	66	12.3	2	6	112	0.00	30.006 
09:50	22.4	22.4	22.4	65	12.4	2	6	90	0.00	30.006 
09:55	22.5	22.5	22.5	65	12.5	2	8	22	0.00	30.006 
10:00	22.9	22.9	22.9	64	12.6	3	9	90	0.00	30.006 
10:05	22.9	22.9	22.9	64	12.6	2	7	90	0.00	30.006 
10:10	22.9	22.9	22.9	63	12.2	3	7	22	0.00	30.006 
10:15	23.0	23.0	23.0	63	12.3	3	7	45	0.00	30.012 
10:20	23.5	23.5	23.5	62	12.4	2	7	68	0.00	30.012 
10:25	23.6	18.4	23.6	60	11.8	4	12	45	0.00	30.012 
10:30	23.6	23.6	23.6	61	12.2	3	7	45	0.00	30.017 
10:35	23.6	23.6	23.6	60	11.8	3	7	22	0.00	30.017 
10:40	23.6	23.6	23.6	60	11.8	2	8	22	0.00	30.017 
10:45	23.6	23.6	23.6	60	11.8	3	9	45	0.00	30.019 
10:50	23.6	23.6	23.6	60	11.8	2	6	22	0.00	30.019 
10:55	23.8	23.8	23.8	60	12.0	2	13	68	0.00	30.019 
11:00	23.8	23.8	23.8	61	12.3	3	9	90	0.00	30.021 
11:05	23.9	23.9	23.9	60	12.1	3	9	90	0.00	30.021 
11:10	23.8	23.8	23.8	60	12.0	3	8	45	0.00	30.021 
11:15	23.6	23.6	23.6	59	11.4	3	10	68	0.00	30.030 
11:20	23.6	23.6	23.6	61	12.2	2	9	45	0.00	30.030 
11:25	23.9	23.9	23.9	61	12.4	1	6	112	0.00	30.030 
11:30	23.9	23.9	23.9	60	12.1	2	7	45	0.00	30.033 
11:35	23.8	23.8	23.8	60	12.0	3	11	68	0.00	30.033 
11:40	23.9	18.7	23.9	59	11.7	4	15	112	0.00	30.033 
11:45	23.9	23.9	23.9	57	10.9	3	7	22	0.00	30.034 
11:50	24.2	24.2	24.2	59	12.0	2	7	45	0.00	30.034 
11:55	24.2	24.2	24.2	59	12.0	3	9	22	0.01	30.034 
12:00	24.4	24.4	24.4	59	12.2	3	8	22	0.00	30.035 
12:05	24.7	24.7	24.7	59	12.4	2	7	45	0.00	30.035 
12:10	24.7	24.7	24.7	57	11.7	2	7	45	0.00	30.035 
12:15	24.7	24.7	24.7	58	12.1	2	10	112	0.00	30.035 
12:20	24.7	24.7	24.7	58	12.1	3	8	22	0.00	30.035 
12:25	24.8	24.8	24.8	58	12.1	3	9	22	0.00	30.035 
12:30	24.8	24.8	24.8	58	12.1	2	6	22	0.00	30.036 
12:35	24.8	24.8	24.8	58	12.1	2	7	45	0.00	30.036 
12:40	25.0	25.0	25.0	58	12.3	2	4	338	0.00	30.036 
12:45	25.3	25.3	25.3	58	12.6	1	10	22	0.00	30.037 
12:50	25.1	25.1	25.1	57	12.0	3	7	45	0.00	30.037 
12:55	25.1	25.1	25.1	57	12.0	3	10	112	0.00	30.037 
13:00	25.1	25.1	25.1	56	11.6	3	6	45	0.00	30.037 
13:05	25.1	25.1	25.1	57	12.0	3	9	0	0.00	30.037 
13:10	25.1	25.1	25.1	58	12.4	2	6	22	0.00	30.037 
13:15	25.3	25.3	25.3	58	12.6	3	11	90	0.00	30.038 
13:20	25.3	25.3	25.3	56	11.8	3	8	45	0.00	30.038 
13:25	25.3	25.3	25.3	57	12.2	3	11	112	0.00	30.038 
13:30	25.4	25.4	25.4	58	12.7	3	7	112	0.00	30.037 
13:35	25.6	25.6	25.6	58	12.9	2	9	68	0.00	30.037 
13:40	25.7	25.7	25.7	58	13.0	1	7	90	0.00	30.037 
13:45	25.8	25.8	25.8	58	13.1	2	6	22	0.00	30.036 
13:50	26.0	26.0	26.0	58	13.3	2	5	90	0.00	30.036 
13:55	26.4	26.4	26.4	59	14.0	1	5	90	0.00	30.036 
14:00	26.6	26.6	26.6	56	13.0	2	4	45	0.00	30.034 
14:05	26.7	26.7	26.7	56	13.1	1	4	45	0.00	30.034 
14:10	26.9	26.9	26.9	56	13.3	2	9	45	0.00	30.034 
14:15	27.0	27.0	27.0	55	13.0	2	5	68	0.00	30.035 
14:20	27.2	27.2	27.2	56	13.6	1	4	292	0.00	30.035 
14:25	27.2	27.2	27.2	55	13.2	2	7	45	0.00	30.035 
14:30	27.0	27.0	27.0	55	13.0	2	4	112	0.00	30.037 
14:35	27.0	27.0	27.0	55	13.0	2	7	338	0.00	30.037 
14:40	27.2	27.2	27.2	55	13.2	1	4	22	0.00	30.037 
14:45	27.5	27.5	27.5	55	13.5	1	3	22	0.00	30.040 
14:50	27.6	27.6	27.6	54	13.2	1	4	45	0.00	30.040 
14:55	27.8	27.8	27.8	55	13.8	1	4	22	0.00	30.040 
15:00	27.8	27.8	27.8	55	13.8	1	3	338	0.00	30.050 
15:05	27.9	27.9	27.9	55	13.9	1	5	68	0.00	30.050 
15:10	27.9	27.9	27.9	54	13.4	2	5	90	0.00	30.050 
15:15	27.9	27.9	27.9	55	13.9	1	3	0	0.00	30.051 
15:20	28.1	28.1	28.1	55	14.0	1	4	22	0.00	30.051 
15:25	28.2	28.2	28.2	55	14.1	1	7	112	0.00	30.051 
15:30	28.1	28.1	28.1	54	13.6	2	9	22	0.00	30.053 
15:35	28.2	28.2	28.2	54	13.7	1	6	315	0.00	30.053 
15:40	27.9	27.9	27.9	53	13.0	2	7	112	0.00	30.053 
15:45	28.1	28.1	28.1	54	13.6	1	5	90	0.00	30.063 
15:50	28.1	28.1	28.1	54	13.6	1	4	68	0.00	30.063 
15:55	28.2	28.2	28.2	53	13.3	1	3	338	0.00	30.063 
16:00	28.2	28.2	28.2	54	13.7	1	3	0	0.00	30.067 
16:05	28.2	28.2	28.2	54	13.7	2	5	90	0.00	30.067 
16:10	28.1	28.1	28.1	55	14.0	1	3	315	0.00	30.067 
16:15	27.9	27.9	27.9	56	14.3	1	5	45	0.00	30.072 
16:20	27.8	27.8	27.8	54	13.3	1	3	0	0.00	30.072 
16:25	27.8	27.8	27.8	55	13.8	1	3	22	0.00	30.072 
16:30	27.6	27.6	27.6	55	13.6	1	3	22	0.00	30.079 
16:35	27.5	27.5	27.5	54	13.1	1	4	338	0.00	30.079 
16:40	27.3	27.3	27.3	53	12.5	1	5	90	0.00	30.079 
16:45	27.2	27.2	27.2	55	13.2	1	3	45	0.00	30.084 
16:50	27.0	27.0	27.0	55	13.0	0	2	68	0.00	30.084 
16:55	27.0	27.0	27.0	54	12.6	0	4	45	0.00	30.084 
17:00	27.0	27.0	27.0	54	12.6	0	2	45	0.00	30.091 
17:05	26.9	26.9	26.9	54	12.5	0	2	45	0.00	30.091 
17:10	26.9	26.9	26.9	54	12.5	0	3	45	0.00	30.091 
17:15	26.7	26.7	26.7	54	12.3	0	2	338	0.00	30.098 
17:20	26.7	26.7	26.7	54	12.3	0	2	338	0.00	30.098 
17:25	26.7	26.7	26.7	54	12.3	1	3	338	0.00	30.098 
17:30	26.6	26.6	26.6	54	12.2	0	2	338	0.00	30.104 
17:35	26.3	26.3	26.3	54	11.9	0	3	248	0.00	30.104 
17:40	26.1	26.1	26.1	54	11.8	0	2	0	0.00	30.104 
17:45	26.0	26.0	26.0	55	12.1	0	3	22	0.00	30.108 
17:50	25.8	25.8	25.8	55	11.9	0	3	22	0.00	30.108 
17:55	25.7	25.7	25.7	56	12.2	0	2	22	0.00	30.108 
18:00	25.4	25.4	25.4	57	12.3	0	2	22	0.00	30.114 
18:05	25.3	25.3	25.3	58	12.6	1	4	0	0.00	30.114 
18:10	25.1	25.1	25.1	58	12.4	0	2	0	0.00	30.114 
18:15	24.8	24.8	24.8	58	12.1	0	2	0	0.00	30.119 
18:20	24.7	24.7	24.7	58	12.1	0	1	0	0.00	30.119 
18:25	24.4	24.4	24.4	59	12.2	0	1	0	0.00	30.119 
18:30	24.1	24.1	24.1	59	11.9	0	1	0	0.00	30.124 
18:35	23.8	23.8	23.8	60	12.0	0	1	0	0.00	30.124 
18:40	23.5	23.5	23.5	60	11.7	0	0	---	0.00	30.124 
18:45	23.3	23.3	23.3	61	11.9	0	1	0	0.00	30.131 
18:50	23.0	23.0	23.0	61	11.6	0	3	0	0.00	30.131 
18:55	23.2	23.2	23.2	61	11.8	0	2	0	0.00	30.131 
19:00	23.2	23.2	23.2	61	11.8	0	1	0	0.00	30.135 
19:05	23.0	23.0	23.0	61	11.6	0	1	0	0.00	30.135 
19:10	23.0	23.0	23.0	62	11.9	0	1	0	0.00	30.135 
19:15	22.9	22.9	22.9	62	11.9	0	2	0	0.00	30.136 
19:20	22.7	22.7	22.7	62	11.7	0	2	135	0.00	30.136 
19:25	22.7	22.7	22.7	62	11.7	0	2	22	0.00	30.136 
19:30	22.5	22.5	22.5	62	11.5	0	2	0	0.00	30.136 
19:35	22.4	22.4	22.4	62	11.4	0	1	22	0.00	30.136 
19:40	22.2	22.2	22.2	63	11.6	0	2	22	0.00	30.136 
19:45	22.1	22.1	22.1	63	11.5	0	2	292	0.00	30.142 
19:50	22.1	22.1	22.1	63	11.5	0	2	292	0.00	30.142 
19:55	21.9	21.9	21.9	63	11.3	0	1	292	0.00	30.142 
20:00	21.8	21.8	21.8	63	11.2	0	2	292	0.00	30.139 
20:05	21.8	21.8	21.8	63	11.2	0	2	292	0.00	30.139 
20:10	21.6	21.6	21.6	63	11.0	0	2	292	0.00	30.139 
20:15	21.4	21.4	21.4	63	10.8	0	2	292	0.00	30.143 
20:20	21.4	21.4	21.4	63	10.8	0	1	292	0.00	30.143 
20:25	21.3	21.3	21.3	63	10.7	0	1	292	0.00	30.143 
20:30	21.1	21.1	21.1	63	10.5	0	3	22	0.00	30.148 
20:35	21.1	21.1	21.1	63	10.5	0	3	22	0.00	30.148 
20:40	21.1	21.1	21.1	63	10.5	0	2	22	0.00	30.148 
20:45	21.0	21.0	21.0	63	10.4	0	2	22	0.00	30.156 
20:50	20.8	20.8	20.8	64	10.6	0	2	22	0.00	30.156 
20:55	20.6	20.6	20.6	64	10.4	0	2	292	0.00	30.156 
21:00	20.6	20.6	20.6	64	10.4	0	1	292	0.00	30.155 
21:05	20.3	20.3	20.3	64	10.1	0	1	292	0.00	30.155 
21:10	20.2	20.2	20.2	65	10.3	0	1	292	0.00	30.155 
21:15	20.0	20.0	20.0	65	10.2	0	1	292	0.00	30.156 
21:20	20.0	20.0	20.0	65	10.2	0	2	292	0.00	30.156 
21:25	20.0	20.0	20.0	65	10.2	0	2	292	0.00	30.156 
21:30	20.0	20.0	20.0	65	10.2	0	2	22	0.00	30.160 
21:35	20.0	20.0	20.0	65	10.2	0	3	22	0.00	30.160 
21:40	20.0	20.0	20.0	66	10.5	0	2	22	0.00	30.160 
21:45	19.9	19.9	19.9	66	10.4	0	1	22	0.00	30.165 
21:50	19.7	19.7	19.7	66	10.2	0	1	22	0.00	30.165 
21:55	19.4	19.4	19.4	66	9.9	0	1	22	0.00	30.165 
22:00	19.4	19.4	19.4	67	10.3	0	1	22	0.00	30.169 
22:05	19.2	19.2	19.2	67	10.1	0	1	22	0.00	30.169 
22:10	19.1	19.1	19.1	68	10.3	0	1	22	0.00	30.169 
22:15	18.8	18.8	18.8	68	10.0	0	1	22	0.00	30.172 
22:20	18.6	18.6	18.6	69	10.2	0	1	22	0.00	30.172 
22:25	18.4	18.4	18.4	69	10.0	0	1	22	0.00	30.172 
22:30	18.3	18.3	18.3	70	10.2	0	1	22	0.00	30.175 
22:35	18.1	18.1	18.1	70	10.0	0	1	22	0.00	30.175 
22:40	18.1	18.1	18.1	71	10.3	0	1	22	0.00	30.175 
22:45	18.1	18.1	18.1	71	10.3	0	2	22	0.00	30.175 
22:50	18.1	18.1	18.1	72	10.6	0	1	22	0.00	30.175 
22:55	18.0	18.0	18.0	72	10.5	0	1	22	0.00	30.175 
23:00	18.0	18.0	18.0	73	10.8	0	0	---	0.00	30.180 
23:05	18.0	18.0	18.0	73	10.8	0	1	22	0.00	30.180 
23:10	18.0	18.0	18.0	73	10.8	0	1	22	0.00	30.180 
23:15	18.0	18.0	18.0	73	10.8	0	1	22	0.00	30.182 
23:20	18.0	18.0	18.0	74	11.1	0	1	22	0.00	30.182 
23:25	18.0	18.0	18.0	74	11.1	0	2	135	0.00	30.182 
23:30	18.1	18.1	18.1	74	11.2	0	1	135	0.00	30.185 
23:35	18.1	18.1	18.1	75	11.5	0	1	135	0.00	30.185 
23:40	18.1	18.1	18.1	75	11.5	0	1	135	0.00	30.185 
23:45	18.1	18.1	18.1	75	11.5	0	1	135	0.00	30.188 
23:50	18.1	18.1	18.1	75	11.5	0	1	135	0.00	30.188 
23:55	18.1	18.1	18.1	76	11.8	0	1	135	0.00	30.188 

CoCoRaHS
IN-AL-39
A2 Web Hosting
Creative Commons License
GoDaddy
search engine by freefind advanced

loaded 2018-11-21 00:46:47 • last modified 2010-11-18 10:43:29
Privacy PolicyDisclaimer
• wx.awcolley.com is powered by PmWiki v.2002016 •
• all content (unless otherwise noted) © 2018 A W Colley